Plyler, North Carolina
Current Conditions -  °F | °C
As of 6:15 PM on Tuesday 25 Nov 2014 (Local Time) from KVUJ Reporting Station
Overcast Overcast  
Wind Chill: 55°   Ceiling: 2700
Heat Index: 55°   Visibility: 10mi
Dew Point: 45°   Wind: 5mph
Humidity: 68%   Direction: 40°NE
Pressure: 30.08"   Gusts: NA
Location:  35.3503°N, 80.2174°W
Report Text: KVUJ 252315Z AUTO 04004KT 10SM BKN027 OVC110 13/07 A3008 RMK AO2 T01280071
Loading
Personal Weather Stations






























Interactive Weather Map New forecast layout! Learn more

10-Day Weather Forecast

Advertisements
Track Severe Weather on mobile